Time;durP1;ratioP1;P1;durP2;ratioP2;P2;SDS_P1;SDS_P2;PMS_P1;PMS_P2;Temp;Humidity;BMP_temperature;BMP_pressure;BME280_temperature;BME280_humidity;BME280_pressure;Samples;Min_cycle;Max_cycle;Signal;HPM_P1;HPM_P2
2022/10/07 00:02:07;;;;;;;16.58;5.43;;;;;;;8.72;100.00;102669.41;5038845;28;20793;-68
2022/10/07 00:04:33;;;;;;;14.73;5.97;;;;;;;8.68;100.00;102669.53;5059332;28;20044;-67
2022/10/07 00:06:58;;;;;;;15.55;6.80;;;;;;;8.78;100.00;102665.72;5058663;28;20032;-67
2022/10/07 00:09:24;;;;;;;19.83;6.68;;;;;;;8.76;100.00;102672.88;5055589;28;20078;-68
2022/10/07 00:11:49;;;;;;;16.65;5.72;;;;;;;8.75;100.00;102673.78;5059390;28;20717;-67
2022/10/07 00:14:14;;;;;;;15.80;5.43;;;;;;;8.81;100.00;102671.84;5053656;28;20047;-69
2022/10/07 00:16:40;;;;;;;20.92;6.20;;;;;;;8.74;100.00;102666.72;5058977;28;20045;-68
2022/10/07 00:19:10;;;;;;;19.02;5.47;;;;;;;8.69;100.00;102664.19;5059066;28;20064;-68
2022/10/07 00:21:37;;;;;;;21.75;5.70;;;;;;;8.75;100.00;102650.72;5054639;28;20703;-68
2022/10/07 00:24:04;;;;;;;13.40;4.43;;;;;;;8.70;100.00;102649.97;5057199;28;20040;-66
2022/10/07 00:26:31;;;;;;;23.33;5.03;;;;;;;8.70;100.00;102652.63;5059505;28;20487;-68
2022/10/07 00:28:57;;;;;;;20.25;5.20;;;;;;;8.69;100.00;102656.22;5055793;28;20024;-69
2022/10/07 00:31:29;;;;;;;15.80;4.38;;;;;;;8.65;100.00;102651.88;5058998;28;20059;-68
2022/10/07 00:33:55;;;;;;;16.42;5.00;;;;;;;8.53;100.00;102645.09;5058578;28;20041;-67
2022/10/07 00:36:26;;;;;;;17.25;5.43;;;;;;;8.54;100.00;102646.84;5036828;28;20111;-67
2022/10/07 00:38:57;;;;;;;25.65;5.25;;;;;;;8.59;100.00;102656.50;5034384;28;20037;-67
2022/10/07 00:41:38;;;;;;;18.67;6.25;;;;;;;8.53;100.00;102642.44;5055968;28;20076;-68
2022/10/07 00:44:32;;;;;;;22.50;5.13;;;;;;;8.53;100.00;102639.78;5033714;28;20036;-68
2022/10/07 00:47:02;;;;;;;17.98;4.68;;;;;;;8.56;100.00;102630.84;5043965;28;20481;-68
2022/10/07 00:49:29;;;;;;;21.35;5.22;;;;;;;8.54;100.00;102630.03;5059837;28;20032;-67
2022/10/07 00:51:56;;;;;;;27.40;5.75;;;;;;;8.46;100.00;102632.00;5062874;28;20068;-68
2022/10/07 00:54:21;;;;;;;19.92;6.00;;;;;;;8.51;100.00;102624.78;5044147;28;20127;-68
2022/10/07 00:56:49;;;;;;;13.45;4.95;;;;;;;8.52;100.00;102626.50;5063661;28;20162;-68
2022/10/07 00:59:16;;;;;;;21.65;5.82;;;;;;;8.37;100.00;102624.25;5050698;28;20225;-69
2022/10/07 01:01:42;;;;;;;17.77;5.80;;;;;;;8.49;100.00;102626.63;5037774;28;20926;-68
2022/10/07 01:04:09;;;;;;;18.98;6.20;;;;;;;8.46;100.00;102618.72;5062440;28;20135;-69
2022/10/07 01:06:38;;;;;;;16.23;6.60;;;;;;;8.46;100.00;102613.38;5039650;28;20048;-69
2022/10/07 01:09:06;;;;;;;26.67;7.60;;;;;;;8.41;100.00;102596.69;5060926;28;20492;-69
2022/10/07 01:11:52;;;;;;;19.30;6.70;;;;;;;8.33;100.00;102602.16;5057506;28;20047;-68
2022/10/07 01:14:23;;;;;;;19.15;6.28;;;;;;;8.32;100.00;102603.06;5061994;28;20036;-68
2022/10/07 01:17:19;;;;;;;18.88;5.65;;;;;;;8.30;100.00;102596.94;5059079;28;20045;-68
2022/10/07 01:20:21;;;;;;;19.40;6.47;;;;;;;8.32;100.00;102595.09;5038289;28;20048;-67
2022/10/07 01:23:16;;;;;;;21.98;6.10;;;;;;;8.32;100.00;102592.44;5036582;28;20117;-68
2022/10/07 01:26:13;;;;;;;17.55;6.65;;;;;;;8.25;100.00;102586.41;5038945;28;20044;-67
2022/10/07 01:28:51;;;;;;;17.67;6.22;;;;;;;8.27;100.00;102583.72;5037239;28;20040;-68
2022/10/07 01:31:21;;;;;;;19.45;5.85;;;;;;;8.28;100.00;102582.78;5022608;28;20041;-68
2022/10/07 01:33:50;;;;;;;13.57;5.68;;;;;;;8.21;100.00;102579.44;5061349;28;20044;-68
2022/10/07 01:36:21;;;;;;;20.00;6.15;;;;;;;8.22;100.00;102573.19;5029360;28;20044;-68
2022/10/07 01:38:52;;;;;;;12.52;5.45;;;;;;;8.26;100.00;102569.56;5039252;28;20714;-68
2022/10/07 01:41:20;;;;;;;13.77;5.57;;;;;;;8.26;100.00;102566.91;5057282;28;20029;-69
2022/10/07 01:43:47;;;;;;;21.95;5.93;;;;;;;8.21;100.00;102559.97;5040645;28;20036;-69
2022/10/07 01:46:18;;;;;;;23.42;6.53;;;;;;;8.15;100.00;102558.34;5017159;28;20068;-68
2022/10/07 01:48:45;;;;;;;16.52;5.70;;;;;;;8.20;100.00;102551.13;5043336;28;20036;-69
2022/10/07 01:51:15;;;;;;;19.80;6.20;;;;;;;8.24;100.00;102555.44;5044327;28;20148;-68
2022/10/07 01:54:01;;;;;;;20.10;6.53;;;;;;;8.11;100.00;102550.47;5042346;28;20041;-67
2022/10/07 01:56:50;;;;;;;18.98;6.32;;;;;;;8.09;100.00;102547.88;5043745;28;20044;-68
2022/10/07 02:00:02;;;;;;;18.00;6.60;;;;;;;8.04;100.00;102545.34;5051153;28;20128;-69
2022/10/07 02:03:17;;;;;;;19.73;6.60;;;;;;;8.10;100.00;102548.75;5039591;28;20079;-69
2022/10/07 02:05:53;;;;;;;17.75;5.78;;;;;;;8.05;100.00;102539.09;5039480;28;20533;-68
2022/10/07 02:08:44;;;;;;;23.60;5.90;;;;;;;8.09;100.00;102539.03;5054310;28;20475;-69
2022/10/07 02:11:15;;;;;;;16.35;6.13;;;;;;;8.14;100.00;102537.13;5055776;28;20039;-69
2022/10/07 02:14:02;;;;;;;15.73;5.55;;;;;;;8.03;100.00;102540.03;5042836;28;20763;-69
2022/10/07 02:16:44;;;;;;;14.90;5.22;;;;;;;7.93;100.00;102530.56;5042689;28;20036;-69
2022/10/07 02:19:15;;;;;;;20.33;5.95;;;;;;;7.97;100.00;102522.47;5041318;28;20036;-69
2022/10/07 02:21:44;;;;;;;22.80;6.55;;;;;;;7.95;100.00;102521.66;5052723;28;20463;-69
2022/10/07 02:24:11;;;;;;;22.02;5.60;;;;;;;7.93;100.00;102520.84;5040162;28;20099;-67
2022/10/07 02:26:40;;;;;;;20.42;6.78;;;;;;;7.92;100.00;102516.41;5043871;28;20032;-69
2022/10/07 02:29:09;;;;;;;20.95;6.07;;;;;;;7.90;100.00;102510.28;5035540;28;20040;-67
2022/10/07 02:31:40;;;;;;;19.08;5.68;;;;;;;7.88;100.00;102509.44;5037938;28;20137;-69
2022/10/07 02:34:08;;;;;;;18.02;6.10;;;;;;;7.92;100.00;102504.91;5055139;28;20048;-67
2022/10/07 02:36:43;;;;;;;23.73;6.15;;;;;;;7.98;100.00;102505.66;5040715;28;20121;-68
2022/10/07 02:39:09;;;;;;;23.90;6.55;;;;;;;7.87;100.00;102494.41;5059562;28;20058;-69
2022/10/07 02:41:44;;;;;;;26.27;6.18;;;;;;;7.95;100.00;102495.09;5041980;28;20576;-68
2022/10/07 02:44:45;;;;;;;21.13;6.60;;;;;;;7.99;100.00;102494.09;5036380;28;20200;-68
2022/10/07 02:47:20;;;;;;;21.50;6.70;;;;;;;8.04;100.00;102493.97;5035907;28;20032;-69
2022/10/07 02:49:49;;;;;;;23.98;6.35;;;;;;;8.01;100.00;102489.59;5038460;28;20045;-69
2022/10/07 02:52:17;;;;;;;26.92;6.32;;;;;;;8.03;100.00;102476.28;5018624;28;20577;-69
2022/10/07 02:55:03;;;;;;;25.08;6.22;;;;;;;8.05;100.00;102479.78;5036531;28;20123;-69
2022/10/07 02:57:42;;;;;;;19.10;5.38;;;;;;;8.12;100.00;102484.00;5038610;28;20073;-68
2022/10/07 03:00:09;;;;;;;24.08;7.88;;;;;;;8.15;100.00;102481.28;5041712;28;20037;-69
2022/10/07 03:02:54;;;;;;;14.70;6.95;;;;;;;8.14;100.00;102474.22;5027022;28;20485;-68
2022/10/07 03:05:24;;;;;;;23.92;6.22;;;;;;;8.20;100.00;102475.84;5036936;28;20148;-69
2022/10/07 03:07:59;;;;;;;15.95;5.75;;;;;;;8.16;100.00;102475.03;5042127;28;20115;-68
2022/10/07 03:10:25;;;;;;;19.45;5.88;;;;;;;8.26;100.00;102468.56;5057974;28;20115;-69
2022/10/07 03:12:52;;;;;;;18.52;5.72;;;;;;;8.26;100.00;102465.91;5036781;28;20025;-69
2022/10/07 03:15:17;;;;;;;14.82;5.00;;;;;;;8.21;100.00;102467.81;5041341;28;20355;-68
2022/10/07 03:17:44;;;;;;;14.73;5.30;;;;;;;8.17;100.00;102463.50;5036829;28;20139;-69
2022/10/07 03:20:13;;;;;;;14.23;5.47;;;;;;;8.07;100.00;102455.81;5065307;28;20040;-68
2022/10/07 03:22:41;;;;;;;25.20;5.95;;;;;;;8.06;100.00;102454.94;5038733;28;20489;-69
2022/10/07 03:25:08;;;;;;;16.60;6.18;;;;;;;8.08;100.00;102452.25;5023720;28;20091;-69
2022/10/07 03:27:34;;;;;;;18.52;5.80;;;;;;;8.05;100.00;102453.22;5039651;28;20037;-69
2022/10/07 03:30:00;;;;;;;21.92;6.32;;;;;;;8.02;100.00;102451.50;5040911;28;20032;-69
2022/10/07 03:32:26;;;;;;;31.15;7.65;;;;;;;7.96;100.00;102453.47;5037418;28;20040;-67
2022/10/07 03:34:55;;;;;;;24.75;6.35;;;;;;;8.04;100.00;102454.13;5038590;28;20837;-68
2022/10/07 03:37:21;;;;;;;23.95;6.15;;;;;;;8.02;100.00;102455.94;5019532;28;20037;-69
2022/10/07 03:39:47;;;;;;;15.75;5.85;;;;;;;8.10;100.00;102448.66;5051125;28;20031;-69
2022/10/07 03:42:13;;;;;;;14.43;5.38;;;;;;;8.08;100.00;102444.28;5031805;28;20484;-69
2022/10/07 03:44:39;;;;;;;19.65;5.72;;;;;;;7.96;100.00;102438.38;5017631;28;20704;-69
2022/10/07 03:47:07;;;;;;;13.95;6.13;;;;;;;7.89;100.00;102433.28;5036159;28;20036;-69
2022/10/07 03:49:34;;;;;;;15.90;6.43;;;;;;;7.95;100.00;102427.81;5028817;28;20490;-68
2022/10/07 03:52:01;;;;;;;18.35;6.82;;;;;;;7.91;100.00;102431.47;5026232;28;20028;-69
2022/10/07 03:54:27;;;;;;;23.45;6.38;;;;;;;7.84;100.00;102430.75;5057340;28;20037;-67
2022/10/07 03:56:53;;;;;;;19.85;6.82;;;;;;;7.85;100.00;102424.53;5023811;28;20033;-68
2022/10/07 03:59:19;;;;;;;31.83;8.45;;;;;;;7.86;100.00;102423.59;5059446;28;20539;-69
2022/10/07 04:01:44;;;;;;;25.60;6.78;;;;;;;7.86;100.00;102425.41;5036815;28;20032;-69
2022/10/07 04:04:10;;;;;;;23.27;6.57;;;;;;;7.79;100.00;102422.91;5057911;28;20639;-68
2022/10/07 04:06:37;;;;;;;31.27;5.80;;;;;;;7.78;100.00;102415.88;5041065;28;20198;-70
2022/10/07 04:09:06;;;;;;;21.50;6.25;;;;;;;7.79;100.00;102425.56;5025213;28;20047;-69
2022/10/07 04:11:34;;;;;;;19.02;6.60;;;;;;;7.81;100.00;102420.22;5058221;28;20059;-68
2022/10/07 04:14:00;;;;;;;16.70;6.13;;;;;;;7.81;100.00;102416.69;5054983;28;20048;-69
2022/10/07 04:16:26;;;;;;;29.70;7.75;;;;;;;7.77;100.00;102421.19;5034307;28;20113;-69
2022/10/07 04:18:55;;;;;;;17.63;6.43;;;;;;;7.82;100.00;102416.63;5040881;28;20497;-68
2022/10/07 04:21:21;;;;;;;18.83;6.13;;;;;;;7.74;100.00;102422.16;5041266;28;20047;-69
2022/10/07 04:23:47;;;;;;;15.95;6.05;;;;;;;7.71;100.00;102416.91;5054846;28;20044;-70
2022/10/07 04:26:13;;;;;;;19.85;6.07;;;;;;;7.75;100.00;102412.41;5039613;28;20032;-69
2022/10/07 04:28:43;;;;;;;17.42;6.97;;;;;;;7.68;100.00;102414.38;5055355;28;20040;-69
2022/10/07 04:31:11;;;;;;;20.83;6.28;;;;;;;7.67;100.00;102417.03;5040376;28;20090;-69
2022/10/07 04:33:44;;;;;;;23.67;6.47;;;;;;;7.62;100.00;102421.59;5039947;28;20036;-68
2022/10/07 04:36:13;;;;;;;19.73;6.97;;;;;;;7.57;100.00;102415.53;5037834;28;20119;-70
2022/10/07 04:38:54;;;;;;;24.23;6.65;;;;;;;7.58;100.00;102415.50;5034997;28;20071;-69
2022/10/07 04:41:25;;;;;;;22.00;8.57;;;;;;;7.62;100.00;102406.53;5036726;28;20443;-69
2022/10/07 04:43:51;;;;;;;24.27;7.05;;;;;;;7.60;100.00;102399.53;5023766;28;20043;-71
2022/10/07 04:46:17;;;;;;;18.77;5.82;;;;;;;7.66;100.00;102405.53;5053539;28;20035;-69
2022/10/07 04:48:50;;;;;;;27.83;6.57;;;;;;;7.59;100.00;102403.09;5038690;28;20044;-66
2022/10/07 04:51:21;;;;;;;24.13;5.82;;;;;;;7.64;100.00;102403.84;5018349;28;20095;-69
2022/10/07 04:53:53;;;;;;;23.30;8.02;;;;;;;7.58;100.00;102401.34;5039216;28;20121;-69
2022/10/07 04:56:21;;;;;;;22.33;6.60;;;;;;;7.65;100.00;102395.84;5036360;28;20040;-69
2022/10/07 04:58:46;;;;;;;30.75;6.85;;;;;;;7.58;100.00;102396.94;5036582;28;20082;-68
2022/10/07 05:01:12;;;;;;;15.70;6.45;;;;;;;7.66;100.00;102394.94;5040641;28;20036;-69
2022/10/07 05:03:42;;;;;;;17.40;6.60;;;;;;;7.64;100.00;102394.09;5036585;28;20036;-69
2022/10/07 05:06:09;;;;;;;27.77;6.28;;;;;;;7.64;100.00;102388.81;5026974;28;20046;-69
2022/10/07 05:08:37;;;;;;;28.08;6.05;;;;;;;7.64;100.00;102379.97;5033080;28;20037;-68
2022/10/07 05:11:04;;;;;;;23.10;7.15;;;;;;;7.67;100.00;102379.88;5036302;28;20854;-69
2022/10/07 05:13:37;;;;;;;24.58;6.30;;;;;;;7.58;100.00;102375.69;5034358;28;20059;-68
2022/10/07 05:16:03;;;;;;;21.45;6.63;;;;;;;7.53;100.00;102377.59;5036220;28;20036;-69
2022/10/07 05:18:30;;;;;;;16.17;6.68;;;;;;;7.58;100.00;102378.34;5037180;28;20045;-69
2022/10/07 05:21:07;;;;;;;22.25;7.22;;;;;;;7.58;100.00;102374.78;5030908;28;20041;-69
2022/10/07 05:23:35;;;;;;;16.45;6.20;;;;;;;7.57;100.00;102373.94;5032519;28;20064;-69
2022/10/07 05:26:06;;;;;;;30.15;7.03;;;;;;;7.48;100.00;102377.72;5034000;28;20032;-67
2022/10/07 05:28:34;;;;;;;45.42;9.95;;;;;;;7.54;100.00;102371.38;5055635;28;20048;-69
2022/10/07 05:31:11;;;;;;;21.73;6.70;;;;;;;7.53;100.00;102372.28;5040340;28;20046;-69
2022/10/07 05:33:38;;;;;;;22.05;6.68;;;;;;;7.56;100.00;102374.84;5038115;28;20033;-69
2022/10/07 05:36:06;;;;;;;26.13;7.38;;;;;;;7.58;100.00;102367.72;5039898;28;20800;-69
2022/10/07 05:38:32;;;;;;;19.13;5.75;;;;;;;7.57;100.00;102355.34;5040885;28;20033;-68
2022/10/07 05:41:01;;;;;;;22.08;6.10;;;;;;;7.61;100.00;102361.44;5042358;28;20041;-69
2022/10/07 05:43:31;;;;;;;21.30;5.97;;;;;;;7.57;100.00;102359.78;5032675;28;20033;-69
2022/10/07 05:46:07;;;;;;;17.90;6.32;;;;;;;7.57;100.00;102363.31;5036881;28;20064;-69
2022/10/07 05:48:36;;;;;;;27.30;6.20;;;;;;;7.56;100.00;102355.38;5033409;28;20152;-70
2022/10/07 05:51:02;;;;;;;20.33;6.13;;;;;;;7.61;100.00;102364.97;5037565;28;20488;-68
2022/10/07 05:53:29;;;;;;;18.45;5.63;;;;;;;7.56;100.00;102364.22;5052565;28;20075;-69
2022/10/07 05:55:56;;;;;;;22.35;6.32;;;;;;;7.58;100.00;102361.53;5032387;28;20123;-69
2022/10/07 05:58:24;;;;;;;24.63;7.40;;;;;;;7.64;100.00;102364.91;5033751;28;20041;-69
2022/10/07 06:00:57;;;;;;;21.15;6.93;;;;;;;7.62;100.00;102360.53;5039891;28;20033;-68
2022/10/07 06:03:25;;;;;;;21.15;7.03;;;;;;;7.56;100.00;102350.09;5035460;28;20025;-70
2022/10/07 06:05:53;;;;;;;29.80;6.07;;;;;;;7.54;100.00;102350.13;5034401;28;20724;-70
2022/10/07 06:08:20;;;;;;;20.38;7.40;;;;;;;7.67;100.00;102355.97;5037428;28;20045;-68
2022/10/07 06:13:30;;;;;;;28.15;6.80;;;;;;;7.76;100.00;102356.59;5038100;28;20033;-69
2022/10/07 06:16:01;;;;;;;18.30;5.97;;;;;;;7.78;100.00;102360.09;5030743;28;20052;-70
2022/10/07 06:18:27;;;;;;;20.60;6.00;;;;;;;7.84;100.00;102366.16;5032886;28;20047;-70
2022/10/07 06:20:57;;;;;;;19.65;5.82;;;;;;;7.99;100.00;102365.72;5032200;28;20040;-69
2022/10/07 06:23:24;;;;;;;18.30;5.90;;;;;;;7.96;100.00;102358.69;5051239;28;20044;-69
2022/10/07 06:25:54;;;;;;;22.05;5.60;;;;;;;8.01;100.00;102355.91;5034513;28;20041;-70
2022/10/07 06:28:20;;;;;;;20.60;6.28;;;;;;;8.09;100.00;102355.72;5038610;28;20029;-68
2022/10/07 06:30:47;;;;;;;25.95;5.65;;;;;;;8.24;100.00;102358.78;5026414;28;20501;-69
2022/10/07 06:33:13;;;;;;;40.35;6.80;;;;;;;8.48;100.00;102359.91;5033733;28;20044;-69
2022/10/07 06:35:39;;;;;;;20.70;6.30;;;;;;;8.60;100.00;102365.75;5034937;28;20033;-70
2022/10/07 06:38:05;;;;;;;24.20;5.90;;;;;;;8.75;100.00;102360.81;5034450;28;20087;-69
2022/10/07 06:40:32;;;;;;;26.38;6.43;;;;;;;9.24;100.00;102366.34;5020444;28;20282;-69
2022/10/07 06:42:57;;;;;;;15.30;5.10;;;;;;;9.29;100.00;102361.75;5021136;28;20478;-69
2022/10/07 06:45:31;;;;;;;20.38;5.53;;;;;;;9.63;100.00;102357.91;5038865;28;20078;-69
2022/10/07 06:47:57;;;;;;;20.70;5.55;;;;;;;9.90;100.00;102350.75;5036388;28;20029;-69
2022/10/07 06:50:23;;;;;;;19.35;5.80;;;;;;;9.83;100.00;102352.75;5038073;28;20496;-67
2022/10/07 06:52:49;;;;;;;17.73;5.60;;;;;;;10.02;100.00;102359.16;5035834;28;20041;-69
2022/10/07 06:55:16;;;;;;;16.48;4.95;;;;;;;10.52;100.00;102358.22;5032654;28;20474;-70
2022/10/07 06:57:42;;;;;;;20.23;5.32;;;;;;;10.67;100.00;102351.41;5032319;28;20082;-70
2022/10/07 07:00:09;;;;;;;21.15;6.22;;;;;;;10.71;100.00;102353.03;5023871;28;20053;-68
2022/10/07 07:02:34;;;;;;;16.05;5.40;;;;;;;10.96;100.00;102353.78;5035238;28;20036;-70
2022/10/07 07:05:03;;;;;;;18.08;5.22;;;;;;;11.24;100.00;102363.31;5035158;28;20049;-68
2022/10/07 07:07:29;;;;;;;17.80;4.65;;;;;;;10.99;100.00;102356.31;5037521;28;20125;-69
2022/10/07 07:09:55;;;;;;;21.90;4.95;;;;;;;11.73;100.00;102362.09;5039302;28;20743;-70
2022/10/07 07:12:25;;;;;;;21.27;5.30;;;;;;;11.23;100.00;102359.75;5037468;28;20037;-70
2022/10/07 07:14:52;;;;;;;17.73;4.72;;;;;;;11.72;100.00;102356.81;5035340;28;20037;-69
2022/10/07 07:17:19;;;;;;;19.05;5.38;;;;;;;11.73;100.00;102355.88;5030115;28;20088;-69
2022/10/07 07:19:45;;;;;;;17.20;5.80;;;;;;;11.80;100.00;102350.19;5034675;28;20576;-69
2022/10/07 07:22:10;;;;;;;16.48;4.88;;;;;;;11.98;100.00;102351.19;5037531;28;20029;-70
2022/10/07 07:24:37;;;;;;;19.58;4.85;;;;;;;11.74;100.00;102353.13;5036859;28;20133;-70
2022/10/07 07:27:03;;;;;;;17.55;5.75;;;;;;;11.90;100.00;102346.22;5021310;28;20103;-70
2022/10/07 07:29:29;;;;;;;15.63;4.72;;;;;;;12.44;99.03;102351.75;5037367;28;20228;-70
2022/10/07 07:31:58;;;;;;;15.20;5.68;;;;;;;12.65;97.61;102349.88;5035444;28;20576;-67
2022/10/07 07:34:25;;;;;;;22.08;5.22;;;;;;;12.43;99.26;102348.22;5038905;28;22086;-70
2022/10/07 07:36:51;;;;;;;16.95;4.75;;;;;;;12.37;100.00;102344.97;5035488;28;20036;-70
2022/10/07 07:39:18;;;;;;;22.23;5.30;;;;;;;12.20;100.00;102356.47;5033995;28;20033;-70
2022/10/07 07:41:50;;;;;;;24.25;5.03;;;;;;;12.12;100.00;102351.44;5037216;28;20083;-68
2022/10/07 07:44:18;;;;;;;17.38;5.57;;;;;;;12.25;100.00;102348.19;5034399;28;20102;-69
2022/10/07 07:46:47;;;;;;;23.25;5.82;;;;;;;12.54;99.12;102347.69;5034096;28;20029;-70
2022/10/07 07:49:14;;;;;;;17.42;5.55;;;;;;;12.27;100.00;102336.50;5043920;28;20119;-69
2022/10/07 07:51:42;;;;;;;13.32;5.63;;;;;;;11.86;100.00;102349.09;5017611;28;20095;-69
2022/10/07 07:54:11;;;;;;;16.98;4.97;;;;;;;11.69;100.00;102344.44;5036139;28;20116;-70
2022/10/07 07:56:38;;;;;;;13.25;5.20;;;;;;;12.07;100.00;102344.56;5037578;28;20041;-70
2022/10/07 07:59:04;;;;;;;17.88;5.35;;;;;;;12.13;100.00;102345.16;5037352;28;20033;-70
2022/10/07 08:01:31;;;;;;;23.10;5.38;;;;;;;11.97;100.00;102348.59;5034153;28;20029;-69
2022/10/07 08:03:57;;;;;;;16.35;5.35;;;;;;;12.00;100.00;102344.00;5035374;28;20146;-69
2022/10/07 08:06:26;;;;;;;18.05;5.70;;;;;;;12.06;100.00;102338.38;5032960;28;20049;-70
2022/10/07 08:08:58;;;;;;;20.92;6.15;;;;;;;12.51;100.00;102337.16;5036977;28;20041;-70
2022/10/07 08:11:24;;;;;;;17.92;5.38;;;;;;;12.69;100.00;102333.59;5020644;28;20057;-69
2022/10/07 08:13:50;;;;;;;15.10;4.95;;;;;;;12.84;100.00;102336.47;5030532;28;20067;-70
2022/10/07 08:16:19;;;;;;;15.80;5.32;;;;;;;12.92;100.00;102331.63;5036712;28;20214;-70
2022/10/07 08:18:48;;;;;;;21.33;5.25;;;;;;;13.17;100.00;102324.09;5031270;28;20115;-70
2022/10/07 08:21:17;;;;;;;19.60;5.28;;;;;;;13.06;100.00;102329.13;5033144;28;20029;-71
2022/10/07 08:23:49;;;;;;;15.07;5.30;;;;;;;13.26;100.00;102321.94;5035843;28;20045;-69
2022/10/07 08:26:14;;;;;;;23.20;5.72;;;;;;;13.03;100.00;102315.88;5036103;28;20063;-70
2022/10/07 08:28:40;;;;;;;14.77;4.13;;;;;;;13.16;100.00;102311.66;5032425;28;20034;-71
2022/10/07 08:31:13;;;;;;;17.88;4.35;;;;;;;13.25;100.00;102315.69;5019249;28;20040;-69
2022/10/07 08:33:40;;;;;;;18.02;4.95;;;;;;;13.28;100.00;102314.69;5036178;28;20103;-71
2022/10/07 08:36:07;;;;;;;13.95;3.88;;;;;;;13.53;100.00;102303.56;5033084;28;20043;-69
2022/10/07 08:38:35;;;;;;;11.40;3.83;;;;;;;13.59;98.08;102295.19;5035069;28;20037;-69
2022/10/07 08:41:21;;;;;;;17.08;4.93;;;;;;;13.64;96.99;102299.34;5034962;28;20044;-69
2022/10/07 08:43:48;;;;;;;17.33;4.20;;;;;;;13.67;97.23;102292.97;5034614;28;20794;-71
2022/10/07 08:46:36;;;;;;;14.35;4.65;;;;;;;13.96;96.88;102291.41;5034323;28;20029;-70
2022/10/07 08:49:14;;;;;;;13.27;3.85;;;;;;;13.83;96.93;102288.53;5036286;28;20036;-71
2022/10/07 08:51:49;;;;;;;22.15;4.28;;;;;;;14.11;95.76;102279.84;5034502;28;20424;-72
2022/10/07 08:54:18;;;;;;;15.23;4.32;;;;;;;13.84;96.36;102281.34;5035600;28;20044;-70
2022/10/07 08:56:47;;;;;;;18.95;4.43;;;;;;;13.90;96.10;102284.53;5034008;28;20089;-69
2022/10/07 08:59:28;;;;;;;15.65;4.13;;;;;;;14.07;96.58;102283.66;5037585;28;20033;-69
2022/10/07 09:02:04;;;;;;;16.77;3.67;;;;;;;14.21;95.57;102283.75;5034040;28;20040;-70
2022/10/07 09:04:48;;;;;;;16.23;4.15;;;;;;;14.14;96.22;102278.78;5043332;28;22931;-70
2022/10/07 09:07:23;;;;;;;20.77;4.50;;;;;;;14.23;94.17;102273.78;5050163;28;20051;-71
2022/10/07 09:10:07;;;;;;;15.18;4.45;;;;;;;14.57;92.78;102276.44;5038305;28;20036;-71
2022/10/07 09:12:55;;;;;;;18.88;3.78;;;;;;;14.48;93.27;102269.75;5058103;28;20044;-70
2022/10/07 09:15:43;;;;;;;11.82;3.80;;;;;;;14.71;93.07;102274.69;5040163;28;20036;-69
2022/10/07 09:18:44;;;;;;;13.40;3.47;;;;;;;14.72;92.53;102268.34;5055365;28;20049;-71
2022/10/07 09:21:18;;;;;;;19.17;4.35;;;;;;;14.72;91.42;102268.34;5055619;28;20385;-68
2022/10/07 09:23:45;;;;;;;15.73;4.35;;;;;;;14.80;90.30;102267.03;5054732;28;20136;-70
2022/10/07 09:26:13;;;;;;;21.42;3.90;;;;;;;14.59;91.15;102264.63;5060475;28;20036;-69
2022/10/07 09:28:39;;;;;;;17.70;5.13;;;;;;;14.68;90.60;102260.56;5061262;28;20128;-70
2022/10/07 09:31:05;;;;;;;20.73;4.35;;;;;;;14.85;91.42;102248.81;5042855;28;20047;-69
2022/10/07 09:33:38;;;;;;;19.88;4.57;;;;;;;14.66;90.75;102252.59;5039533;28;20032;-72
2022/10/07 09:36:07;;;;;;;22.85;4.72;;;;;;;14.90;90.52;102254.78;5058237;28;20808;-71
2022/10/07 09:38:38;;;;;;;9.00;3.70;;;;;;;15.06;89.34;102246.69;5037427;28;20032;-71
2022/10/07 09:41:23;;;;;;;13.32;4.15;;;;;;;15.44;89.43;102247.94;5059702;28;20040;-71
2022/10/07 09:44:10;;;;;;;17.80;4.45;;;;;;;15.26;92.20;102244.56;5056281;28;20139;-71
2022/10/07 09:46:40;;;;;;;19.77;3.72;;;;;;;14.96;89.47;102238.31;5058193;28;20032;-69
2022/10/07 09:49:24;;;;;;;13.85;3.65;;;;;;;15.25;89.70;102240.13;5057830;28;20049;-70
2022/10/07 09:52:22;;;;;;;16.30;4.68;;;;;;;15.44;90.59;102236.31;5057816;28;20029;-70
2022/10/07 09:54:50;;;;;;;15.88;3.70;;;;;;;15.44;90.15;102229.09;5057473;28;20055;-71
2022/10/07 09:57:23;;;;;;;20.77;4.80;;;;;;;15.38;91.14;102232.19;5053214;28;20593;-71
2022/10/07 09:59:49;;;;;;;17.25;3.67;;;;;;;15.33;89.97;102234.28;5059170;28;20051;-71
2022/10/07 10:02:23;;;;;;;16.88;3.80;;;;;;;15.53;86.95;102225.84;5040691;28;20024;-71
2022/10/07 10:04:52;;;;;;;17.55;4.13;;;;;;;15.70;86.98;102222.13;5060042;28;20055;-69
2022/10/07 10:07:31;;;;;;;16.63;4.03;;;;;;;16.31;86.97;102226.31;5057621;28;20097;-72
2022/10/07 10:10:03;;;;;;;16.83;2.85;;;;;;;16.43;83.40;102218.38;5057124;28;20049;-73
2022/10/07 10:12:36;;;;;;;17.17;3.10;;;;;;;16.65;83.09;102213.28;5060019;28;20040;-73
2022/10/07 10:15:22;;;;;;;11.60;2.85;;;;;;;17.17;80.95;102204.38;5038185;28;20081;-68
2022/10/07 10:17:48;;;;;;;9.98;2.88;;;;;;;16.99;81.44;102208.34;5060843;28;20114;-72
2022/10/07 10:20:28;;;;;;;18.63;4.65;;;;;;;17.38;78.92;102203.84;5053073;28;20032;-71
2022/10/07 10:22:54;;;;;;;15.48;3.60;;;;;;;17.52;76.60;102196.50;5059225;28;20066;-70
2022/10/07 10:28:57;;;;;;;14.35;3.03;;;;;;;17.58;75.65;102185.28;5057285;28;20038;-71
2022/10/07 10:31:38;;;;;;;10.52;2.50;;;;;;;17.77;75.92;102184.84;5047059;28;20060;-70
2022/10/07 10:34:23;;;;;;;13.13;2.30;;;;;;;18.14;76.29;102178.59;5059509;28;20044;-71
2022/10/07 10:36:57;;;;;;;20.55;3.80;;;;;;;18.21;75.59;102177.16;5035081;28;20403;-70
2022/10/07 10:39:39;;;;;;;13.23;2.63;;;;;;;17.96;73.72;102173.56;5057735;28;20486;-70
2022/10/07 10:42:10;;;;;;;17.10;2.78;;;;;;;17.97;74.99;102175.31;5058466;28;20538;-72
2022/10/07 10:44:49;;;;;;;17.67;2.58;;;;;;;17.48;76.64;102169.84;5059931;28;20048;-70
2022/10/07 10:47:20;;;;;;;17.52;2.88;;;;;;;17.43;76.82;102174.72;5059874;28;20051;-71
2022/10/07 10:50:26;;;;;;;15.75;3.95;;;;;;;17.31;77.76;102154.84;5041368;28;20059;-70
2022/10/07 10:53:33;;;;;;;17.98;3.63;;;;;;;17.00;76.14;102161.53;5055420;28;20064;-70
2022/10/07 10:56:27;;;;;;;15.90;2.03;;;;;;;16.82;76.95;102156.47;5050668;28;20460;-68
2022/10/07 10:59:02;;;;;;;7.43;2.15;;;;;;;17.13;75.33;102153.47;5057742;28;20040;-71
2022/10/07 11:01:38;;;;;;;9.27;2.20;;;;;;;16.98;76.72;102140.09;5039470;28;20060;-70
2022/10/07 11:04:14;;;;;;;12.43;2.38;;;;;;;17.08;78.14;102137.63;5036836;28;20031;-71
2022/10/07 11:06:44;;;;;;;19.05;3.80;;;;;;;17.29;76.88;102138.78;5053827;28;20044;-70
2022/10/07 11:09:31;;;;;;;12.88;2.78;;;;;;;17.12;76.69;102125.66;5056056;28;20043;-69
2022/10/07 11:12:02;;;;;;;8.88;2.60;;;;;;;17.28;74.40;102133.53;5052690;28;20063;-68
2022/10/07 11:14:30;;;;;;;12.93;2.50;;;;;;;17.24;74.07;102126.63;5055984;28;20489;-70
2022/10/07 11:17:03;;;;;;;12.10;2.15;;;;;;;17.14;76.13;102117.47;5057038;28;20897;-69
2022/10/07 11:19:37;;;;;;;14.52;3.40;;;;;;;17.39;75.43;102111.19;5055124;28;20559;-69
2022/10/07 11:22:10;;;;;;;13.05;2.10;;;;;;;17.29;75.57;102100.19;5051452;28;20150;-69
2022/10/07 11:24:49;;;;;;;15.73;2.45;;;;;;;17.24;75.03;102118.53;5056102;28;20098;-69
2022/10/07 11:27:21;;;;;;;18.05;2.42;;;;;;;17.26;74.50;102103.94;5052571;28;20029;-70
2022/10/07 11:29:55;;;;;;;;;;;;;;;17.26;75.39;102095.00;5054735;28;20364;-68
2022/10/07 11:32:27;;;;;;;15.23;2.50;;;;;;;17.36;75.04;102096.06;5051552;28;19990;-69
2022/10/07 11:35:16;;;;;;;8.60;2.38;;;;;;;17.21;73.76;102084.56;5039349;28;20785;-69
2022/10/07 11:37:59;;;;;;;10.38;2.80;;;;;;;17.13;73.13;102072.63;5055498;28;20150;-69
2022/10/07 11:40:29;;;;;;;15.32;2.53;;;;;;;17.14;75.73;102072.50;5054150;28;20036;-69
2022/10/07 11:42:57;;;;;;;12.85;2.15;;;;;;;17.23;75.93;102070.97;5057478;28;20048;-69
2022/10/07 11:45:28;;;;;;;12.45;1.70;;;;;;;17.26;72.63;102066.22;5058315;28;20078;-70